createdAt,value
2024-01-06T00:04:44.472Z,10.72
2024-01-06T00:12:10.312Z,10.05
2024-01-06T00:17:02.401Z,10.18
2024-01-06T00:21:54.503Z,10.44
2024-01-06T00:26:46.328Z,10.61
2024-01-06T00:31:38.304Z,10.27
2024-01-06T00:36:31.173Z,10.46
2024-01-06T00:41:23.056Z,10.27
2024-01-06T00:46:14.896Z,10.52
2024-01-06T00:51:07.326Z,10.46
2024-01-06T00:55:59.327Z,10.46
2024-01-06T01:00:51.324Z,10.64
2024-01-06T01:05:43.477Z,11.14
2024-01-06T01:10:35.525Z,10.89
2024-01-06T01:15:27.430Z,10.97
2024-01-06T01:20:19.620Z,10.68
2024-01-06T01:25:13.466Z,10.61
2024-01-06T01:30:06.941Z,10.09
2024-01-06T01:34:59.142Z,10.47
2024-01-06T01:39:51.131Z,10.46
2024-01-06T01:44:43.030Z,10.56
2024-01-06T01:49:35.385Z,10.61
2024-01-06T01:54:28.359Z,11.26
2024-01-06T01:59:21.515Z,11.27
2024-01-06T02:04:14.451Z,11.13
2024-01-06T02:09:06.952Z,11.14
2024-01-06T02:13:59.086Z,11.00
2024-01-06T02:18:51.324Z,10.66
2024-01-06T02:23:43.475Z,10.16
2024-01-06T02:28:35.472Z,10.41
2024-01-06T02:33:27.706Z,10.69
2024-01-06T02:38:19.710Z,10.09
2024-01-06T02:43:11.755Z,10.78
2024-01-06T02:48:04.157Z,10.58
2024-01-06T02:52:56.219Z,10.34
2024-01-06T02:57:48.267Z,10.57
2024-01-06T03:02:43.096Z,10.24
2024-01-06T03:07:35.094Z,10.35
2024-01-06T03:12:27.177Z,10.43
2024-01-06T03:17:19.340Z,10.59
2024-01-06T03:22:11.313Z,10.54
2024-01-06T03:27:03.778Z,10.44
2024-01-06T03:31:55.687Z,11.09
2024-01-06T03:36:47.856Z,10.90
2024-01-06T03:41:40.018Z,10.60
2024-01-06T03:46:31.945Z,10.95
2024-01-06T03:51:24.610Z,10.87
2024-01-06T03:56:16.893Z,11.00
2024-01-06T04:01:08.864Z,11.43
2024-01-06T04:06:01.012Z,11.43
2024-01-06T04:10:53.013Z,11.20
2024-01-06T04:15:45.801Z,10.95
2024-01-06T04:20:38.438Z,11.35
2024-01-06T04:25:30.273Z,10.80
2024-01-06T04:30:22.577Z,10.80
2024-01-06T04:35:14.959Z,10.67
2024-01-06T04:40:07.543Z,11.12
2024-01-06T04:44:59.659Z,11.15
2024-01-06T04:49:51.979Z,11.25
2024-01-06T04:54:44.097Z,11.37
2024-01-06T04:59:36.143Z,11.35
2024-01-06T05:04:28.280Z,11.36
2024-01-06T05:09:20.356Z,11.28
2024-01-06T05:14:13.073Z,11.60
2024-01-06T05:19:05.160Z,11.27
2024-01-06T05:23:57.575Z,10.34
2024-01-06T05:28:50.142Z,10.59
2024-01-06T05:33:42.209Z,9.47
2024-01-06T05:38:34.181Z,9.72
2024-01-06T05:43:26.327Z,9.47
2024-01-06T05:48:18.684Z,9.07
2024-01-06T05:53:11.979Z,8.91
2024-01-06T05:58:05.203Z,9.00
2024-01-06T06:02:57.224Z,9.06
2024-01-06T06:07:49.252Z,9.06
2024-01-06T06:12:41.306Z,9.17
2024-01-06T06:17:34.299Z,9.28
2024-01-06T06:22:32.103Z,8.89
2024-01-06T06:27:25.211Z,8.33
2024-01-06T06:32:17.918Z,8.90
2024-01-06T06:37:10.039Z,9.02
2024-01-06T06:42:02.692Z,9.10
2024-01-06T06:46:54.615Z,9.07
2024-01-06T06:51:50.017Z,9.25
2024-01-06T06:56:42.503Z,8.69
2024-01-06T07:01:35.610Z,9.18
2024-01-06T07:06:27.660Z,9.29
2024-01-06T07:11:20.542Z,9.43
2024-01-06T07:16:19.121Z,9.34
2024-01-06T07:21:14.057Z,9.61
2024-01-06T07:26:06.534Z,9.39
2024-01-06T07:30:58.701Z,9.20
2024-01-06T07:35:54.179Z,9.60
2024-01-06T07:40:46.086Z,9.29
2024-01-06T07:45:38.866Z,9.35
2024-01-06T07:50:30.952Z,9.00
2024-01-06T07:55:22.922Z,8.77
2024-01-06T08:00:17.704Z,8.59
2024-01-06T08:05:10.890Z,8.89
2024-01-06T08:10:06.542Z,8.25
2024-01-06T08:14:58.705Z,9.05
2024-01-06T08:19:50.909Z,9.15
2024-01-06T08:24:43.004Z,9.22
2024-01-06T08:29:35.839Z,9.32
2024-01-06T08:34:32.161Z,9.41
2024-01-06T08:39:26.304Z,9.29
2024-01-06T08:44:18.193Z,9.57
2024-01-06T08:49:10.496Z,9.70
2024-01-06T08:54:06.005Z,9.58
2024-01-06T08:58:58.481Z,9.52
2024-01-06T09:03:51.449Z,9.21
2024-01-06T09:08:43.498Z,9.17
2024-01-06T09:13:35.566Z,9.49
2024-01-06T09:18:29.657Z,9.31
2024-01-06T09:23:25.168Z,9.26
2024-01-06T09:28:17.897Z,9.23
2024-01-06T09:33:10.400Z,9.42
2024-01-06T09:38:02.688Z,9.37
2024-01-06T09:42:55.616Z,9.29
2024-01-06T09:47:52.727Z,9.15
2024-01-06T09:52:50.674Z,9.26
2024-01-06T09:57:42.818Z,9.57
2024-01-06T10:02:34.990Z,9.84
2024-01-06T10:07:30.667Z,10.06
2024-01-06T10:12:26.786Z,10.06
2024-01-06T10:17:19.703Z,9.87
2024-01-06T10:22:12.692Z,9.22
2024-01-06T10:27:05.494Z,9.29
2024-01-06T10:31:59.334Z,9.51
2024-01-06T10:36:55.383Z,9.83
2024-01-06T10:41:50.002Z,10.21
2024-01-06T10:46:43.145Z,9.37
2024-01-06T10:51:35.858Z,9.81
2024-01-06T10:56:31.576Z,10.29
2024-01-06T11:01:30.418Z,9.33
2024-01-06T11:06:23.961Z,10.71
2024-01-06T11:11:18.208Z,10.35
2024-01-06T11:16:11.020Z,10.36
2024-01-06T11:21:29.348Z,10.52
2024-01-06T11:26:21.478Z,10.38
2024-01-06T11:31:14.774Z,10.31
2024-01-06T11:36:11.062Z,10.17
2024-01-06T11:41:03.216Z,10.20
2024-01-06T11:46:02.030Z,10.25
2024-01-06T11:50:54.226Z,9.76
2024-01-06T11:55:46.369Z,9.51
2024-01-06T12:00:41.491Z,9.38
2024-01-06T12:05:34.231Z,9.60
2024-01-06T12:10:29.149Z,9.86
2024-01-06T12:15:21.200Z,9.46
2024-01-06T12:20:13.545Z,8.83
2024-01-06T12:25:07.746Z,9.09
2024-01-06T12:29:59.834Z,8.64
2024-01-06T12:34:52.350Z,8.58
2024-01-06T12:39:46.739Z,8.47
2024-01-06T12:44:40.544Z,8.58
2024-01-06T12:49:33.546Z,8.43
2024-01-06T12:54:26.643Z,8.51
2024-01-06T12:59:20.150Z,8.18
2024-01-06T13:04:12.764Z,7.76
2024-01-06T13:09:07.651Z,7.87
2024-01-06T13:13:59.798Z,7.93
2024-01-06T13:24:05.672Z,7.66
2024-01-06T13:28:57.802Z,7.65
2024-01-06T13:33:50.100Z,8.33
2024-01-06T13:38:45.589Z,7.93
2024-01-06T13:43:50.027Z,7.80
2024-01-06T13:48:50.670Z,7.12
2024-01-06T13:53:48.865Z,7.92
2024-01-06T13:58:45.923Z,7.93
2024-01-06T14:03:42.414Z,7.86
2024-01-06T14:08:51.338Z,7.72
2024-01-06T14:13:51.389Z,7.83
2024-01-06T14:18:46.251Z,7.85
2024-01-06T14:23:48.980Z,7.94
2024-01-06T14:28:41.588Z,7.89
2024-01-06T14:33:36.297Z,7.63
2024-01-06T14:38:28.496Z,7.68
2024-01-06T14:43:21.933Z,7.52
2024-01-06T14:48:13.990Z,7.35
2024-01-06T14:53:06.346Z,7.63
2024-01-06T14:57:58.533Z,7.51
2024-01-06T15:02:51.261Z,7.12
2024-01-06T15:07:43.186Z,7.39
2024-01-06T15:12:35.617Z,7.17
2024-01-06T15:17:27.661Z,7.10
2024-01-06T15:22:19.916Z,7.03
2024-01-06T15:27:12.300Z,6.52
2024-01-06T15:32:04.946Z,6.37
2024-01-06T15:36:57.090Z,6.93
2024-01-06T15:42:01.947Z,6.78
2024-01-06T15:46:58.744Z,7.12
2024-01-06T15:51:51.086Z,7.08
2024-01-06T15:56:43.123Z,6.93
2024-01-06T16:01:35.632Z,7.26
2024-01-06T16:06:28.551Z,6.92
2024-01-06T16:11:21.257Z,6.41
2024-01-06T16:16:14.861Z,6.87
2024-01-06T16:21:07.294Z,6.78
2024-01-06T16:26:00.299Z,6.76
2024-01-06T16:30:54.079Z,6.72
2024-01-06T16:35:47.619Z,6.81
2024-01-06T16:40:42.823Z,6.49
2024-01-06T16:45:35.414Z,6.77
2024-01-06T16:50:27.456Z,6.76
2024-01-06T16:55:20.060Z,6.80
2024-01-06T17:00:13.102Z,6.31
2024-01-06T17:05:06.270Z,6.30
2024-01-06T17:10:01.389Z,6.25
2024-01-06T17:14:53.696Z,5.95
2024-01-06T17:19:48.544Z,5.62
2024-01-06T17:24:40.934Z,6.01
2024-01-06T17:29:33.859Z,5.91
2024-01-06T17:34:27.030Z,6.03
2024-01-06T17:39:20.874Z,6.11
2024-01-06T17:44:14.028Z,6.05
2024-01-06T17:49:07.846Z,5.92
2024-01-06T17:54:02.250Z,6.37
2024-01-06T17:58:54.777Z,5.48
2024-01-06T18:03:47.099Z,6.01
2024-01-06T18:08:39.508Z,6.21
2024-01-06T18:13:31.658Z,6.07
2024-01-06T18:18:23.948Z,6.21
2024-01-06T18:23:17.701Z,6.21
2024-01-06T18:28:09.895Z,6.53
2024-01-06T18:33:02.011Z,6.41
2024-01-06T18:37:55.227Z,5.80
2024-01-06T18:42:47.348Z,6.44
2024-01-06T18:47:43.037Z,6.37
2024-01-06T18:52:35.366Z,6.68
2024-01-06T18:57:27.552Z,5.94
2024-01-06T19:02:19.914Z,6.67
2024-01-06T19:07:11.930Z,6.60
2024-01-06T19:12:04.580Z,6.69
2024-01-06T19:16:56.686Z,6.36
2024-01-06T19:21:49.853Z,6.62
2024-01-06T19:26:42.822Z,6.64
2024-01-06T19:31:36.053Z,6.64
2024-01-06T19:36:28.034Z,6.69
2024-01-06T19:41:20.249Z,6.79
2024-01-06T19:46:13.051Z,7.00
2024-01-06T19:51:06.106Z,6.89
2024-01-06T19:56:02.782Z,6.90
2024-01-06T20:00:55.069Z,6.70
2024-01-06T20:05:47.231Z,6.60
2024-01-06T20:10:39.350Z,6.73
2024-01-06T20:15:32.360Z,6.70
2024-01-06T20:20:24.707Z,6.55
2024-01-06T20:25:16.982Z,6.57
2024-01-06T20:30:10.278Z,6.41
2024-01-06T20:35:02.459Z,6.47
2024-01-06T20:39:55.914Z,6.18
2024-01-06T20:44:48.348Z,6.37
2024-01-06T20:49:41.150Z,6.40
2024-01-06T20:54:33.159Z,6.36
2024-01-06T20:59:27.498Z,6.48
2024-01-06T21:04:19.473Z,6.35
2024-01-06T21:09:11.683Z,6.35
2024-01-06T21:14:03.949Z,6.21
2024-01-06T21:18:57.173Z,6.42
2024-01-06T21:23:49.801Z,6.41
2024-01-06T21:28:43.689Z,6.42
2024-01-06T21:33:36.528Z,6.69
2024-01-06T21:38:31.785Z,6.88
2024-01-06T21:43:24.183Z,6.58
2024-01-06T21:48:16.693Z,6.65
2024-01-06T21:53:08.582Z,6.72
2024-01-06T21:58:01.646Z,6.93
2024-01-06T22:02:54.131Z,6.74
2024-01-06T22:07:46.165Z,6.74
2024-01-06T22:12:38.363Z,6.34
2024-01-06T22:17:32.073Z,6.70
2024-01-06T22:22:25.876Z,6.76
2024-01-06T22:27:18.013Z,6.67
2024-01-06T22:32:10.660Z,6.48
2024-01-06T22:37:03.571Z,6.21
2024-01-06T22:41:57.505Z,6.71
2024-01-06T22:46:49.665Z,6.43
2024-01-06T22:51:41.512Z,6.73
2024-01-06T22:56:33.664Z,6.69
2024-01-06T23:01:25.832Z,6.77
2024-01-06T23:06:18.532Z,6.80
2024-01-06T23:11:15.244Z,6.69
2024-01-06T23:16:07.680Z,6.64
2024-01-06T23:21:00.495Z,6.86
2024-01-06T23:25:53.461Z,6.42
2024-01-06T23:30:45.640Z,6.72
2024-01-06T23:35:38.613Z,6.76
2024-01-06T23:40:30.710Z,6.82
2024-01-06T23:45:23.737Z,6.63
2024-01-06T23:50:15.712Z,6.54
2024-01-06T23:55:08.201Z,6.53
